Terminal Aerodrome Forecast
Issued by NWS

Home | Current Version | Previous Version | Text Only | Print | Product List | Glossary On
Versions: 1 2 3 4 5 6 7 8 9 10 11 12 13 14 15 16 17 18 19 20 21 22 23 24
000
FTUS42 KMLB 052334
TAFLEE
TAF
KLEE 052334Z 0600/0624 27006KT P6SM FEW045 BKN080 BKN250
     FM060600 30005KT P6SM SCT025 SCT035 BKN060
     FM060900 36008KT P6SM SCT005 BKN010 OVC030
      TEMPO 0609/0612 5SM BR
     FM061200 03009KT P6SM BKN012 OVC025
     FM062100 01012KT P6SM SCT015 BKN025=

USA.gov is the U.S. government's official web portal to all federal, state and local government web resources and services.